Terminal Aerodrome Forecast
Issued by NWS

Home | Current Version | Previous Version | Text Only | Print | Product List | Glossary On
Versions: 1 2 3 4 5 6 7 8 9 10 11 12 13 14 15 16 17 18
000
FTUS43 KDTX 250234 AAA
TAFMBS
TAF AMD
KMBS 250234Z 2503/2524 22003KT P6SM BKN200
     FM250700 22004KT 3SM BR SCT060 BKN200
     FM251100 24011G18KT P6SM OVC012
     FM251500 27015G25KT P6SM BKN018
     FM251800 28016G26KT P6SM SKC=

USA.gov is the U.S. government's official web portal to all federal, state and local government web resources and services.